createdAt,value
2018-12-29T00:03:04.757Z,2.1
2018-12-29T00:08:02.851Z,2.2
2018-12-29T00:13:00.968Z,2.1
2018-12-29T00:17:58.964Z,1.7
2018-12-29T00:22:57.047Z,2.2
2018-12-29T00:27:55.033Z,2.1
2018-12-29T00:32:52.927Z,1.7
2018-12-29T00:37:51.072Z,2.2
2018-12-29T00:42:49.117Z,2.2
2018-12-29T00:47:46.975Z,2.2
2018-12-29T00:52:45.013Z,2.2
2018-12-29T00:57:43.024Z,2.2
2018-12-29T01:02:40.981Z,2.2
2018-12-29T01:07:38.911Z,2.2
2018-12-29T01:12:37.080Z,2.2
2018-12-29T01:17:35.014Z,2.2
2018-12-29T01:22:33.076Z,2.2
2018-12-29T01:27:31.118Z,1.7
2018-12-29T01:32:29.161Z,2.2
2018-12-29T01:37:27.160Z,2.2
2018-12-29T01:42:25.175Z,2.2
2018-12-29T01:47:23.360Z,2.2
2018-12-29T01:52:21.496Z,2.2
2018-12-29T01:57:19.107Z,1.7
2018-12-29T02:02:17.171Z,2.2
2018-12-29T02:07:15.174Z,2.2
2018-12-29T02:12:12.947Z,1.7
2018-12-29T02:17:10.857Z,2.2
2018-12-29T02:22:08.807Z,2.2
2018-12-29T02:27:06.207Z,2.1
2018-12-29T02:32:04.286Z,2.2
2018-12-29T02:37:01.840Z,2
2018-12-29T02:41:59.619Z,1.8
2018-12-29T02:46:57.661Z,2.2
2018-12-29T02:51:55.718Z,2.2
2018-12-29T02:56:53.729Z,2.2
2018-12-29T03:01:51.887Z,2.2
2018-12-29T03:06:49.660Z,2.2
2018-12-29T03:11:47.718Z,2.2
2018-12-29T03:16:45.801Z,2.2
2018-12-29T03:21:43.494Z,2.2
2018-12-29T03:26:41.590Z,2.2
2018-12-29T03:31:39.713Z,2.2
2018-12-29T03:36:37.762Z,1.8
2018-12-29T03:41:35.742Z,2.2
2018-12-29T03:46:33.777Z,2.1
2018-12-29T03:51:31.807Z,2.2
2018-12-29T03:56:29.933Z,2.2
2018-12-29T04:01:28.008Z,2.2
2018-12-29T04:06:26.165Z,2.2
2018-12-29T04:11:24.187Z,2.2
2018-12-29T04:16:22.169Z,2.2
2018-12-29T04:21:20.225Z,2.2
2018-12-29T04:26:18.113Z,2.2
2018-12-29T04:31:16.056Z,2.2
2018-12-29T04:36:14.356Z,2.3
2018-12-29T04:41:12.556Z,2.3
2018-12-29T04:46:10.591Z,2.3
2018-12-29T04:51:08.579Z,2.3
2018-12-29T04:56:06.521Z,2.3
2018-12-29T05:01:04.549Z,2.3
2018-12-29T05:06:02.703Z,2.3
2018-12-29T05:11:00.650Z,2.3
2018-12-29T05:15:58.862Z,2.3
2018-12-29T05:20:56.778Z,2.3
2018-12-29T05:25:54.673Z,2.3
2018-12-29T05:30:52.789Z,2.3
2018-12-29T05:35:50.502Z,2
2018-12-29T05:40:48.330Z,2.3
2018-12-29T05:45:46.649Z,2.3
2018-12-29T05:50:43.970Z,2.3
2018-12-29T05:55:42.064Z,2.3
2018-12-29T06:00:40.065Z,2.3
2018-12-29T06:05:38.024Z,2.3
2018-12-29T06:10:36.028Z,2.3
2018-12-29T06:15:33.916Z,2.3
2018-12-29T06:20:32.009Z,2.3
2018-12-29T06:25:30.233Z,2.3
2018-12-29T06:30:27.549Z,2.3
2018-12-29T06:35:25.740Z,2
2018-12-29T06:40:23.792Z,2.3
2018-12-29T06:45:22.054Z,2.3
2018-12-29T06:50:19.421Z,2.3
2018-12-29T06:55:17.466Z,2.4
2018-12-29T07:00:15.228Z,2.4
2018-12-29T07:05:13.339Z,2.4
2018-12-29T07:10:11.354Z,2.4
2018-12-29T07:15:09.119Z,2.4
2018-12-29T07:20:07.314Z,2.4
2018-12-29T07:25:05.458Z,2.3
2018-12-29T07:30:03.329Z,2.4
2018-12-29T07:35:01.520Z,2.4
2018-12-29T07:39:59.334Z,2.4
2018-12-29T07:44:57.129Z,2.4
2018-12-29T07:49:55.253Z,2
2018-12-29T07:54:53.576Z,1.9
2018-12-29T07:59:51.806Z,2.3
2018-12-29T08:04:50.103Z,1.7
2018-12-29T08:09:48.205Z,2.4
2018-12-29T08:14:46.387Z,2
2018-12-29T08:19:44.535Z,2.4
2018-12-29T08:24:42.678Z,2
2018-12-29T08:29:40.584Z,2.4
2018-12-29T08:34:38.824Z,2
2018-12-29T08:39:36.754Z,2.5
2018-12-29T08:44:34.895Z,2.5
2018-12-29T08:49:32.694Z,2
2018-12-29T08:54:30.859Z,2.5
2018-12-29T08:59:28.877Z,2.5
2018-12-29T09:04:26.897Z,2.5
2018-12-29T09:09:24.902Z,2.1
2018-12-29T09:14:22.391Z,2.5
2018-12-29T09:19:26.961Z,2.5
2018-12-29T09:24:24.406Z,2.6
2018-12-29T09:29:22.507Z,2.6
2018-12-29T09:34:22.471Z,2.6
2018-12-29T09:39:20.035Z,2.2
2018-12-29T09:44:18.130Z,2.6
2018-12-29T09:49:15.704Z,2.7
2018-12-29T09:54:13.671Z,2.7
2018-12-29T09:59:11.652Z,2.7
2018-12-29T10:04:09.745Z,2.7
2018-12-29T10:09:07.839Z,2.7
2018-12-29T10:14:05.875Z,2.8
2018-12-29T10:19:03.645Z,2.8
2018-12-29T10:24:01.895Z,2.8
2018-12-29T10:29:00.074Z,2.8
2018-12-29T10:33:58.199Z,2.4
2018-12-29T10:38:55.928Z,2.8
2018-12-29T10:43:54.146Z,2.9
2018-12-29T10:48:52.306Z,2.9
2018-12-29T10:53:50.329Z,2.5
2018-12-29T10:58:48.254Z,2.9
2018-12-29T11:03:46.450Z,3
2018-12-29T11:08:44.688Z,3
2018-12-29T11:13:42.775Z,2.8
2018-12-29T11:18:40.899Z,3
2018-12-29T11:23:38.510Z,3
2018-12-29T11:28:36.944Z,3.1
2018-12-29T11:33:35.364Z,3.1
2018-12-29T11:38:33.027Z,3.1
2018-12-29T11:43:31.132Z,3.1
2018-12-29T11:48:29.704Z,2.7
2018-12-29T11:53:28.368Z,3.2
2018-12-29T11:58:26.633Z,3.2
2018-12-29T12:03:24.721Z,3.2
2018-12-29T12:08:23.283Z,3.2
2018-12-29T12:13:21.543Z,3.3
2018-12-29T12:18:19.848Z,3.3
2018-12-29T12:23:18.056Z,3.3
2018-12-29T12:28:16.272Z,3.3
2018-12-29T12:33:14.288Z,3.3
2018-12-29T12:38:12.617Z,3.3
2018-12-29T12:43:11.091Z,3.4
2018-12-29T12:48:09.640Z,3.4
2018-12-29T12:53:07.784Z,3.4
2018-12-29T12:58:06.639Z,3.4
2018-12-29T13:03:05.291Z,3.3
2018-12-29T13:08:03.560Z,3.5
2018-12-29T13:13:01.361Z,3.5
2018-12-29T13:17:58.944Z,3.5
2018-12-29T13:22:57.567Z,3.5
2018-12-29T13:27:55.601Z,3.5
2018-12-29T13:32:53.846Z,3.5
2018-12-29T13:37:51.646Z,3.5
2018-12-29T13:42:49.427Z,3.5
2018-12-29T13:47:47.579Z,3.6
2018-12-29T13:52:45.970Z,3.6
2018-12-29T13:57:43.776Z,3.6
2018-12-29T14:02:41.878Z,3.6
2018-12-29T14:07:40.135Z,3.6
2018-12-29T14:12:38.275Z,3.6
2018-12-29T14:17:36.328Z,3.6
2018-12-29T14:22:34.872Z,3.6
2018-12-29T14:27:32.534Z,3.6
2018-12-29T14:32:30.785Z,3.6
2018-12-29T14:37:28.993Z,3.7
2018-12-29T14:42:27.067Z,3.7
2018-12-29T14:47:25.146Z,3.7
2018-12-29T14:52:23.721Z,3.7
2018-12-29T14:57:22.243Z,3.7
2018-12-29T15:02:20.546Z,3.7
2018-12-29T15:07:18.391Z,3.7
2018-12-29T15:12:16.051Z,3.7
2018-12-29T15:17:14.402Z,3.7
2018-12-29T15:22:12.764Z,3.7
2018-12-29T15:27:11.265Z,3.7
2018-12-29T15:32:09.344Z,3.7
2018-12-29T15:37:07.051Z,3.7
2018-12-29T15:42:05.852Z,3.7
2018-12-29T15:47:03.753Z,3.7
2018-12-29T15:52:01.925Z,3.7
2018-12-29T15:57:00.164Z,3.7
2018-12-29T16:01:58.791Z,3.7
2018-12-29T16:06:56.879Z,3.7
2018-12-29T16:11:55.186Z,3.7
2018-12-29T16:16:53.275Z,3.7
2018-12-29T16:21:51.288Z,3.7
2018-12-29T16:26:49.999Z,3.7
2018-12-29T16:31:48.122Z,3.7
2018-12-29T16:36:46.365Z,3.7
2018-12-29T16:41:44.485Z,3.7
2018-12-29T16:46:42.554Z,3.7
2018-12-29T16:51:40.645Z,3.3
2018-12-29T16:56:38.479Z,3.7
2018-12-29T17:01:36.652Z,3.7
2018-12-29T17:06:34.681Z,3.7
2018-12-29T17:11:32.733Z,3.7
2018-12-29T17:16:31.385Z,3.7
2018-12-29T17:21:29.612Z,3.7
2018-12-29T17:26:27.755Z,3.7
2018-12-29T17:31:25.982Z,3.7
2018-12-29T17:36:24.301Z,3.7
2018-12-29T17:41:22.627Z,3.7
2018-12-29T17:46:21.397Z,3.6
2018-12-29T17:51:19.344Z,3.6
2018-12-29T17:56:17.364Z,3.6
2018-12-29T18:01:15.761Z,3.6
2018-12-29T18:06:13.505Z,3.6
2018-12-29T18:11:11.704Z,3.6
2018-12-29T18:16:09.488Z,3.6
2018-12-29T18:21:07.660Z,3.6
2018-12-29T18:26:06.377Z,3.1
2018-12-29T18:31:04.514Z,3.5
2018-12-29T18:36:02.701Z,3.5
2018-12-29T18:41:00.875Z,3.5
2018-12-29T18:45:59.083Z,3.5
2018-12-29T18:50:57.233Z,3.5
2018-12-29T18:55:55.365Z,3.5
2018-12-29T19:00:53.095Z,3.5
2018-12-29T19:05:51.612Z,3.4
2018-12-29T19:10:49.742Z,3.4
2018-12-29T19:15:48.520Z,3.4
2018-12-29T19:20:46.651Z,3.4
2018-12-29T19:25:44.969Z,3.4
2018-12-29T19:30:43.632Z,3.4
2018-12-29T19:35:42.262Z,3.4
2018-12-29T19:40:40.906Z,3.3
2018-12-29T19:45:39.434Z,3.3
2018-12-29T19:50:37.497Z,3.3
2018-12-29T19:55:35.705Z,3.3
2018-12-29T20:00:33.846Z,3.3
2018-12-29T20:05:31.818Z,3.3
2018-12-29T20:10:29.829Z,3.3
2018-12-29T20:15:27.835Z,3.2
2018-12-29T20:20:25.860Z,3.2
2018-12-29T20:25:24.131Z,3.2
2018-12-29T20:30:22.256Z,3.2
2018-12-29T20:35:20.540Z,2.8
2018-12-29T20:40:18.682Z,3.2
2018-12-29T20:45:16.944Z,3.2
2018-12-29T20:50:15.102Z,2.5
2018-12-29T20:55:13.275Z,3.2
2018-12-29T21:00:11.316Z,3.1
2018-12-29T21:05:09.463Z,3.1
2018-12-29T21:10:07.582Z,3.1
2018-12-29T21:15:05.610Z,3.1
2018-12-29T21:20:03.800Z,3.1
2018-12-29T21:25:01.863Z,3.1
2018-12-29T21:30:00.086Z,3.1
2018-12-29T21:34:58.724Z,3.1
2018-12-29T21:39:56.251Z,2.6
2018-12-29T21:44:54.511Z,3
2018-12-29T21:49:52.115Z,2.6
2018-12-29T21:54:50.460Z,3
2018-12-29T21:59:48.642Z,2.6
2018-12-29T22:04:46.587Z,3
2018-12-29T22:09:44.722Z,3
2018-12-29T22:14:42.897Z,3
2018-12-29T22:19:40.873Z,3
2018-12-29T22:24:38.603Z,3
2018-12-29T22:29:36.406Z,3
2018-12-29T22:34:34.678Z,3
2018-12-29T22:39:32.399Z,3
2018-12-29T22:44:30.265Z,2.9
2018-12-29T22:49:28.222Z,2.9
2018-12-29T22:54:26.768Z,2.9
2018-12-29T22:59:24.934Z,2.9
2018-12-29T23:04:23.030Z,2.9
2018-12-29T23:09:21.076Z,2.4
2018-12-29T23:14:18.937Z,2.9
2018-12-29T23:19:17.248Z,2.7
2018-12-29T23:24:15.320Z,2.9
2018-12-29T23:29:13.401Z,2.9
2018-12-29T23:34:11.604Z,2.9
2018-12-29T23:39:09.677Z,2.9
2018-12-29T23:44:07.029Z,2.8
2018-12-29T23:49:04.890Z,2.5
2018-12-29T23:54:02.636Z,2.8
2018-12-29T23:59:01.295Z,2.4
